createdAt,value
2019-04-03T00:00:12.608Z,65.70
2019-04-03T00:02:40.819Z,65.90
2019-04-03T00:05:09.294Z,65.40
2019-04-03T00:07:37.522Z,66.30
2019-04-03T00:10:08.736Z,66.60
2019-04-03T00:12:37.350Z,67.10
2019-04-03T00:15:06.142Z,67.30
2019-04-03T00:17:34.373Z,67.80
2019-04-03T00:20:03.062Z,68.40
2019-04-03T00:22:31.402Z,68.70
2019-04-03T00:24:59.608Z,68.60
2019-04-03T00:27:28.036Z,68.90
2019-04-03T00:29:56.284Z,69.00
2019-04-03T00:32:24.646Z,68.90
2019-04-03T00:34:53.466Z,68.80
2019-04-03T00:37:23.288Z,69.20
2019-04-03T00:39:53.868Z,69.30
2019-04-03T00:42:24.620Z,69.80
2019-04-03T00:44:54.694Z,69.80
2019-04-03T00:47:25.119Z,69.30
2019-04-03T00:49:53.198Z,69.80
2019-04-03T00:52:21.582Z,70.00
2019-04-03T00:54:49.833Z,69.30
2019-04-03T00:57:18.069Z,69.80
2019-04-03T00:59:46.291Z,70.20
2019-04-03T01:02:16.435Z,69.80
2019-04-03T01:04:44.499Z,69.70
2019-04-03T01:07:12.720Z,70.10
2019-04-03T01:09:41.670Z,69.60
2019-04-03T01:12:09.898Z,70.20
2019-04-03T01:14:38.134Z,70.00
2019-04-03T01:17:06.367Z,70.40
2019-04-03T01:19:36.397Z,71.30
2019-04-03T01:22:05.639Z,70.70
2019-04-03T01:24:34.635Z,70.60
2019-04-03T01:27:02.871Z,69.50
2019-04-03T01:29:31.101Z,70.00
2019-04-03T01:31:59.335Z,70.10
2019-04-03T01:34:27.619Z,70.50
2019-04-03T01:36:55.872Z,71.00
2019-04-03T01:39:24.105Z,71.80
2019-04-03T01:41:52.436Z,72.40
2019-04-03T01:44:20.661Z,72.90
2019-04-03T01:46:48.968Z,73.30
2019-04-03T01:49:17.213Z,73.20
2019-04-03T01:51:45.478Z,73.40
2019-04-03T01:54:13.728Z,72.60
2019-04-03T01:56:42.068Z,72.80
2019-04-03T01:59:10.303Z,73.70
2019-04-03T02:01:39.095Z,73.70
2019-04-03T02:04:07.671Z,74.00
2019-04-03T02:06:35.890Z,74.40
2019-04-03T02:09:06.166Z,75.00
2019-04-03T02:11:34.392Z,74.90
2019-04-03T02:14:02.623Z,74.20
2019-04-03T02:16:30.848Z,73.70
2019-04-03T02:18:59.104Z,73.10
2019-04-03T02:21:28.287Z,73.60
2019-04-03T02:23:56.663Z,73.40
2019-04-03T02:26:24.895Z,73.50
2019-04-03T02:28:53.176Z,72.70
2019-04-03T02:31:21.383Z,72.40
2019-04-03T02:33:50.531Z,72.50
2019-04-03T02:36:18.914Z,72.20
2019-04-03T02:38:47.125Z,73.20
2019-04-03T02:41:15.664Z,72.40
2019-04-03T02:43:46.289Z,72.20
2019-04-03T02:46:14.185Z,73.00
2019-04-03T02:48:42.420Z,74.20
2019-04-03T02:51:10.701Z,73.50
2019-04-03T02:53:38.970Z,74.30
2019-04-03T02:56:07.482Z,75.30
2019-04-03T02:58:37.979Z,74.70
2019-04-03T03:01:07.323Z,75.70
2019-04-03T03:03:36.293Z,75.60
2019-04-03T03:06:04.544Z,76.50
2019-04-03T03:08:32.761Z,76.80
2019-04-03T03:11:02.517Z,75.60
2019-04-03T03:13:34.634Z,74.90
2019-04-03T03:16:01.567Z,74.70
2019-04-03T03:18:30.016Z,74.50
2019-04-03T03:20:58.634Z,74.20
2019-04-03T03:23:26.974Z,74.10
2019-04-03T03:25:55.174Z,74.00
2019-04-03T03:28:23.706Z,73.80
2019-04-03T03:30:59.937Z,74.00
2019-04-03T03:33:32.640Z,73.80
2019-04-03T03:35:52.310Z,73.20
2019-04-03T03:38:20.931Z,74.70
2019-04-03T03:40:49.435Z,74.60
2019-04-03T03:43:17.990Z,74.40
2019-04-03T03:45:46.241Z,74.00
2019-04-03T03:48:14.454Z,74.20
2019-04-03T03:50:42.681Z,74.10
2019-04-03T03:53:12.681Z,74.30
2019-04-03T03:55:41.318Z,74.90
2019-04-03T03:58:12.468Z,74.10
2019-04-03T04:00:39.813Z,74.00
2019-04-03T04:03:10.094Z,74.00
2019-04-03T04:05:38.365Z,74.10
2019-04-03T04:08:10.628Z,74.20
2019-04-03T04:10:37.237Z,74.70
2019-04-03T04:13:05.981Z,74.60
2019-04-03T04:15:34.376Z,74.90
2019-04-03T04:18:03.362Z,74.90
2019-04-03T04:20:31.629Z,75.20
2019-04-03T04:23:00.820Z,75.70
2019-04-03T04:25:30.589Z,76.00
2019-04-03T04:27:59.480Z,76.20
2019-04-03T04:30:27.923Z,76.00
2019-04-03T04:32:56.618Z,75.80
2019-04-03T04:35:25.186Z,75.80
2019-04-03T04:37:55.295Z,75.80
2019-04-03T04:40:23.480Z,75.90
2019-04-03T04:42:51.784Z,75.70
2019-04-03T04:45:20.028Z,75.80
2019-04-03T04:47:48.248Z,76.00
2019-04-03T04:50:24.289Z,76.50
2019-04-03T04:52:51.474Z,76.30
2019-04-03T04:55:19.708Z,76.60
2019-04-03T04:57:48.042Z,76.80
2019-04-03T05:00:16.400Z,76.50
2019-04-03T05:02:44.596Z,76.40
2019-04-03T05:05:12.983Z,76.50
2019-04-03T05:07:41.283Z,76.50
2019-04-03T05:10:09.519Z,76.80
2019-04-03T05:12:39.122Z,76.80
2019-04-03T05:15:08.088Z,76.60
2019-04-03T05:17:36.351Z,76.70
2019-04-03T05:20:05.253Z,76.80
2019-04-03T05:22:33.571Z,78.30
2019-04-03T05:25:02.093Z,77.20
2019-04-03T05:27:33.362Z,77.30
2019-04-03T05:30:00.413Z,77.10
2019-04-03T05:32:28.916Z,77.10
2019-04-03T05:34:57.157Z,76.90
2019-04-03T05:37:25.589Z,77.20
2019-04-03T05:39:55.629Z,77.50
2019-04-03T05:42:24.073Z,77.80
2019-04-03T05:44:52.319Z,78.00
2019-04-03T05:47:20.634Z,77.70
2019-04-03T05:49:51.075Z,77.50
2019-04-03T05:52:19.343Z,77.50
2019-04-03T05:54:47.660Z,77.40
2019-04-03T05:57:16.174Z,77.90
2019-04-03T05:59:44.658Z,77.80
2019-04-03T06:02:16.178Z,77.80
2019-04-03T06:04:42.988Z,78.00
2019-04-03T06:07:11.266Z,78.10
2019-04-03T06:09:39.495Z,77.90
2019-04-03T06:12:09.071Z,78.00
2019-04-03T06:14:37.758Z,77.90
2019-04-03T06:17:05.980Z,77.80
2019-04-03T06:19:35.377Z,77.60
2019-04-03T06:22:04.183Z,77.70
2019-04-03T06:24:32.454Z,78.00
2019-04-03T06:27:00.712Z,78.10
2019-04-03T06:29:29.149Z,78.10
2019-04-03T06:31:58.262Z,78.30
2019-04-03T06:34:26.909Z,78.80
2019-04-03T06:36:55.208Z,80.20
2019-04-03T06:39:24.184Z,80.50
2019-04-03T06:41:52.531Z,80.20
2019-04-03T06:44:22.533Z,77.90
2019-04-03T06:46:53.679Z,77.70
2019-04-03T06:49:21.627Z,77.50
2019-04-03T06:51:50.020Z,77.40
2019-04-03T06:54:18.281Z,77.50
2019-04-03T06:56:46.703Z,77.90
2019-04-03T06:59:16.476Z,77.50
2019-04-03T07:01:45.008Z,77.20
2019-04-03T07:04:13.441Z,77.90
2019-04-03T07:06:44.300Z,77.10
2019-04-03T07:09:22.067Z,76.60
2019-04-03T07:11:43.218Z,77.30
2019-04-03T07:14:11.824Z,76.30
2019-04-03T07:16:40.073Z,76.60
2019-04-03T07:19:08.669Z,76.40
2019-04-03T07:21:37.318Z,76.80
2019-04-03T07:24:05.559Z,77.40
2019-04-03T07:26:35.749Z,77.30
2019-04-03T07:29:04.080Z,77.30
2019-04-03T07:31:32.318Z,77.20
2019-04-03T07:34:02.996Z,77.00
2019-04-03T07:36:30.506Z,76.90
2019-04-03T07:38:59.038Z,77.50
2019-04-03T07:41:27.994Z,77.10
2019-04-03T07:43:56.677Z,77.50
2019-04-03T07:46:26.189Z,77.30
2019-04-03T07:48:54.652Z,77.40
2019-04-03T07:51:23.051Z,77.20
2019-04-03T07:53:52.955Z,76.50
2019-04-03T07:56:21.381Z,76.50
2019-04-03T07:58:49.609Z,76.70
2019-04-03T08:01:18.779Z,76.60
2019-04-03T08:03:47.928Z,77.40
2019-04-03T08:06:16.148Z,75.70
2019-04-03T08:08:45.206Z,76.80
2019-04-03T08:11:15.204Z,76.10
2019-04-03T08:13:43.605Z,76.30
2019-04-03T08:16:13.780Z,76.50
2019-04-03T08:18:42.205Z,76.40
2019-04-03T08:21:10.816Z,75.80
2019-04-03T08:23:39.240Z,75.10
2019-04-03T08:26:07.460Z,76.30
2019-04-03T08:28:44.833Z,74.90
2019-04-03T08:31:13.418Z,74.80
2019-04-03T08:33:43.010Z,76.50
2019-04-03T08:36:23.136Z,76.30
2019-04-03T08:38:43.862Z,74.90
2019-04-03T08:41:11.139Z,76.10
2019-04-03T08:43:39.465Z,75.10
2019-04-03T08:46:09.765Z,75.20
2019-04-03T08:48:37.662Z,75.60
2019-04-03T08:51:06.105Z,75.80
2019-04-03T08:53:34.348Z,75.60
2019-04-03T08:56:02.589Z,75.30
2019-04-03T08:58:30.842Z,75.30
2019-04-03T09:00:59.361Z,75.50
2019-04-03T09:03:27.739Z,75.30
2019-04-03T09:05:55.960Z,74.90
2019-04-03T09:08:24.694Z,74.80
2019-04-03T09:10:54.172Z,75.20
2019-04-03T09:13:23.986Z,75.10
2019-04-03T09:15:52.330Z,75.30
2019-04-03T09:18:21.967Z,75.60
2019-04-03T09:20:50.337Z,76.40
2019-04-03T09:23:18.646Z,77.10
2019-04-03T09:25:47.189Z,76.70
2019-04-03T09:28:15.495Z,77.10
2019-04-03T09:30:43.756Z,77.40
2019-04-03T09:33:13.640Z,77.10
2019-04-03T09:35:42.989Z,78.30
2019-04-03T09:38:11.800Z,78.90
2019-04-03T09:40:40.033Z,80.40
2019-04-03T09:43:08.287Z,80.10
2019-04-03T09:45:36.637Z,81.50
2019-04-03T09:48:06.119Z,82.00
2019-04-03T09:50:34.575Z,83.60
2019-04-03T09:53:02.913Z,83.80
2019-04-03T09:55:35.760Z,84.40
2019-04-03T09:58:03.329Z,85.10
2019-04-03T10:00:31.241Z,85.60
2019-04-03T10:02:59.616Z,85.60
2019-04-03T10:05:28.947Z,85.60
2019-04-03T10:07:58.320Z,86.90
2019-04-03T10:10:26.930Z,87.20
2019-04-03T10:12:55.348Z,87.40
2019-04-03T10:15:23.848Z,87.80
2019-04-03T10:17:52.223Z,88.00
2019-04-03T10:20:21.227Z,88.10
2019-04-03T10:22:49.564Z,88.70
2019-04-03T10:25:18.331Z,88.90
2019-04-03T10:27:46.811Z,89.50
2019-04-03T10:30:15.361Z,89.50
2019-04-03T10:32:43.650Z,90.00
2019-04-03T10:35:11.966Z,90.30
2019-04-03T10:37:40.234Z,90.30
2019-04-03T10:40:10.257Z,90.40
2019-04-03T10:42:39.172Z,90.50
2019-04-03T10:45:08.173Z,90.70
2019-04-03T10:47:42.061Z,90.80
2019-04-03T10:50:07.280Z,90.70
2019-04-03T10:52:35.774Z,90.60
2019-04-03T10:55:05.802Z,90.80
2019-04-03T10:57:35.350Z,90.60
2019-04-03T11:00:06.644Z,91.00
2019-04-03T11:02:35.487Z,90.60
2019-04-03T11:05:06.107Z,90.80
2019-04-03T11:07:34.728Z,90.80
2019-04-03T11:10:03.469Z,90.90
2019-04-03T11:12:32.480Z,90.80
2019-04-03T11:15:00.863Z,91.00
2019-04-03T11:17:29.359Z,91.20
2019-04-03T11:19:58.002Z,91.00
2019-04-03T11:22:26.236Z,91.10
2019-04-03T11:25:18.750Z,91.10
2019-04-03T11:27:47.424Z,91.10
2019-04-03T11:30:18.736Z,91.00
2019-04-03T11:32:45.687Z,91.10
2019-04-03T11:35:14.380Z,91.00
2019-04-03T11:37:42.743Z,91.20
2019-04-03T11:40:11.242Z,91.00
2019-04-03T11:42:39.473Z,91.10
2019-04-03T11:45:07.972Z,91.20
2019-04-03T11:47:36.541Z,91.10
2019-04-03T11:50:08.037Z,91.10
2019-04-03T11:52:36.376Z,91.20
2019-04-03T11:55:10.083Z,91.30
2019-04-03T11:57:36.486Z,91.30
2019-04-03T12:00:13.333Z,91.10
2019-04-03T12:02:44.009Z,91.20
2019-04-03T12:05:13.173Z,91.20
2019-04-03T12:07:42.714Z,91.60
2019-04-03T12:10:11.319Z,91.50
2019-04-03T12:12:40.174Z,91.20
2019-04-03T12:15:09.719Z,91.30
2019-04-03T12:17:38.878Z,91.50
2019-04-03T12:20:09.173Z,91.30
2019-04-03T12:22:37.913Z,91.10
2019-04-03T12:25:06.313Z,91.20
2019-04-03T12:27:36.052Z,91.20
2019-04-03T12:30:07.237Z,91.20
2019-04-03T12:32:38.519Z,90.70
2019-04-03T12:35:08.838Z,91.20
2019-04-03T12:37:37.048Z,91.20
2019-04-03T12:40:08.751Z,91.00
2019-04-03T12:42:37.021Z,91.00
2019-04-03T12:45:05.787Z,90.90
2019-04-03T12:47:34.016Z,90.60
2019-04-03T12:50:02.301Z,90.50
2019-04-03T12:52:31.061Z,90.70
2019-04-03T12:54:59.701Z,90.60
2019-04-03T12:57:28.103Z,90.70
2019-04-03T12:59:56.976Z,90.80
2019-04-03T13:02:25.786Z,90.60
2019-04-03T13:04:54.194Z,90.60
2019-04-03T13:07:23.015Z,90.30
2019-04-03T13:09:51.519Z,90.30
2019-04-03T13:12:22.075Z,90.40
2019-04-03T13:14:50.094Z,90.30
2019-04-03T13:17:18.413Z,90.30
2019-04-03T13:19:47.231Z,89.20
2019-04-03T13:22:18.130Z,89.30
2019-04-03T13:24:48.311Z,89.50
2019-04-03T13:27:16.903Z,88.60
2019-04-03T13:29:45.133Z,87.70
2019-04-03T13:32:16.204Z,88.10
2019-04-03T13:34:43.347Z,88.60
2019-04-03T13:37:11.837Z,85.00
2019-04-03T13:39:40.068Z,84.90
2019-04-03T13:42:08.386Z,85.90
2019-04-03T13:44:36.867Z,85.80
2019-04-03T13:47:07.482Z,85.70
2019-04-03T13:49:35.118Z,84.30
2019-04-03T13:52:08.300Z,84.70
2019-04-03T13:54:34.260Z,85.20
2019-04-03T13:57:02.490Z,85.20
2019-04-03T13:59:30.735Z,85.40
2019-04-03T14:01:58.964Z,85.40
2019-04-03T14:04:27.202Z,85.70
2019-04-03T14:06:55.622Z,86.40
2019-04-03T14:09:24.013Z,87.00
2019-04-03T14:11:52.520Z,86.60
2019-04-03T14:14:21.134Z,87.70
2019-04-03T14:16:49.473Z,88.00
2019-04-03T14:19:17.746Z,87.40
2019-04-03T14:21:46.232Z,86.80
2019-04-03T14:24:14.663Z,86.90
2019-04-03T14:26:45.620Z,86.80
2019-04-03T14:29:12.966Z,86.20
2019-04-03T14:31:42.395Z,85.90
2019-04-03T14:34:10.664Z,85.80
2019-04-03T14:36:39.273Z,86.30
2019-04-03T14:39:09.086Z,86.00
2019-04-03T14:41:37.540Z,86.30
2019-04-03T14:44:07.567Z,86.30
2019-04-03T14:46:36.164Z,86.80
2019-04-03T14:49:04.773Z,87.70
2019-04-03T14:51:33.143Z,87.50
2019-04-03T14:54:01.409Z,86.90
2019-04-03T14:56:30.433Z,86.80
2019-04-03T14:58:59.884Z,86.70
2019-04-03T15:01:28.581Z,86.90
2019-04-03T15:04:00.000Z,86.50
2019-04-03T15:06:27.063Z,86.60
2019-04-03T15:08:55.476Z,86.70
2019-04-03T15:11:24.119Z,86.20
2019-04-03T15:13:52.942Z,86.50
2019-04-03T15:16:21.407Z,87.20
2019-04-03T15:18:49.854Z,86.90
2019-04-03T15:21:18.188Z,87.10
2019-04-03T15:23:46.407Z,87.30
2019-04-03T15:26:14.726Z,87.60
2019-04-03T15:28:43.135Z,87.40
2019-04-03T15:31:14.312Z,87.20
2019-04-03T15:33:42.462Z,87.50
2019-04-03T15:36:10.672Z,87.60
2019-04-03T15:38:39.440Z,87.70
2019-04-03T15:41:07.993Z,87.80
2019-04-03T15:43:36.215Z,87.50
2019-04-03T15:46:04.498Z,87.70
2019-04-03T15:48:32.739Z,87.80
2019-04-03T15:51:01.040Z,86.50
2019-04-03T15:53:29.334Z,85.80
2019-04-03T15:55:57.644Z,85.80
2019-04-03T15:58:27.311Z,85.20
2019-04-03T16:00:56.134Z,84.30
2019-04-03T16:03:25.138Z,84.00
2019-04-03T16:05:53.508Z,82.20
2019-04-03T16:08:21.782Z,82.50
2019-04-03T16:10:50.069Z,83.00
2019-04-03T16:13:20.852Z,82.50
2019-04-03T16:15:48.841Z,81.50
2019-04-03T16:18:19.770Z,81.60
2019-04-03T16:20:49.053Z,81.10
2019-04-03T16:23:17.349Z,81.20
2019-04-03T16:25:48.500Z,80.70
2019-04-03T16:28:15.526Z,80.40
2019-04-03T16:30:46.468Z,79.30
2019-04-03T16:33:21.541Z,79.60
2019-04-03T16:35:46.158Z,79.00
2019-04-03T16:38:15.034Z,78.00
2019-04-03T16:40:43.658Z,77.90
2019-04-03T16:43:13.959Z,77.70
2019-04-03T16:45:42.365Z,76.70
2019-04-03T16:48:10.591Z,76.90
2019-04-03T16:50:38.849Z,77.30
2019-04-03T16:53:07.491Z,77.10
2019-04-03T16:55:36.296Z,76.70
2019-04-03T16:58:04.582Z,76.80
2019-04-03T17:00:32.814Z,77.30
2019-04-03T17:03:01.139Z,77.40
2019-04-03T17:05:29.356Z,77.50
2019-04-03T17:07:57.967Z,77.80
2019-04-03T17:10:26.213Z,77.60
2019-04-03T17:12:54.832Z,77.40
2019-04-03T17:15:23.613Z,77.40
2019-04-03T17:17:51.974Z,77.90
2019-04-03T17:20:22.370Z,77.50
2019-04-03T17:22:50.277Z,78.00
2019-04-03T17:25:18.728Z,78.40
2019-04-03T17:27:55.004Z,78.20
2019-04-03T17:30:18.303Z,77.80
2019-04-03T17:32:47.115Z,77.60
2019-04-03T17:35:16.255Z,78.00
2019-04-03T17:37:44.797Z,77.80
2019-04-03T17:40:13.073Z,77.70
2019-04-03T17:42:41.292Z,79.10
2019-04-03T17:45:09.625Z,78.30
2019-04-03T17:47:37.859Z,78.00
2019-04-03T17:50:06.922Z,77.50
2019-04-03T17:52:36.361Z,77.50
2019-04-03T17:55:09.869Z,77.60
2019-04-03T17:57:39.004Z,78.00
2019-04-03T18:00:10.345Z,79.80
2019-04-03T18:02:38.589Z,78.50
2019-04-03T18:05:07.395Z,78.60
2019-04-03T18:07:37.085Z,78.70
2019-04-03T18:10:09.121Z,78.40
2019-04-03T18:12:36.809Z,78.30
2019-04-03T18:15:07.444Z,78.90
2019-04-03T18:17:35.839Z,79.10
2019-04-03T18:20:05.320Z,79.30
2019-04-03T18:22:33.523Z,80.00
2019-04-03T18:25:01.871Z,79.60
2019-04-03T18:27:33.231Z,79.50
2019-04-03T18:30:00.307Z,79.40
2019-04-03T18:32:29.829Z,80.10
2019-04-03T18:34:58.378Z,79.70
2019-04-03T18:37:26.652Z,79.60
2019-04-03T18:39:54.885Z,79.60
2019-04-03T18:42:23.108Z,79.70
2019-04-03T18:44:52.517Z,79.90
2019-04-03T18:47:20.754Z,80.00
2019-04-03T18:49:49.031Z,80.30
2019-04-03T18:52:17.272Z,80.90
2019-04-03T18:54:45.694Z,81.10
2019-04-03T18:57:15.011Z,81.10
2019-04-03T18:59:43.929Z,81.20
2019-04-03T19:02:12.158Z,81.20
2019-04-03T19:04:40.391Z,81.20
2019-04-03T19:07:09.020Z,81.10
2019-04-03T19:09:37.261Z,81.20
2019-04-03T19:12:08.629Z,81.40
2019-04-03T19:14:36.633Z,81.50
2019-04-03T19:17:04.876Z,81.70
2019-04-03T19:19:33.712Z,81.60
2019-04-03T19:22:02.071Z,81.60
2019-04-03T19:24:30.344Z,81.60
2019-04-03T19:26:58.591Z,81.50
2019-04-03T19:29:26.813Z,81.70
2019-04-03T19:31:55.623Z,81.80
2019-04-03T19:34:23.952Z,81.50
2019-04-03T19:36:52.409Z,81.70
2019-04-03T19:39:20.715Z,81.90
2019-04-03T19:41:48.963Z,82.00
2019-04-03T19:44:18.072Z,82.10
2019-04-03T19:46:47.028Z,82.10
2019-04-03T19:49:15.249Z,82.40
2019-04-03T19:51:43.483Z,82.70
2019-04-03T19:54:11.708Z,82.60
2019-04-03T19:56:39.957Z,82.70
2019-04-03T19:59:08.230Z,83.00
2019-04-03T20:01:38.783Z,82.90
2019-04-03T20:04:06.666Z,82.70
2019-04-03T20:06:35.093Z,82.70
2019-04-03T20:09:05.334Z,82.70
2019-04-03T20:11:34.170Z,82.60
2019-04-03T20:14:03.561Z,82.60
2019-04-03T20:16:31.773Z,82.60
2019-04-03T20:19:00.022Z,82.60
2019-04-03T20:21:28.239Z,82.90
2019-04-03T20:23:56.491Z,83.00
2019-04-03T20:26:24.726Z,83.20
2019-04-03T20:28:52.977Z,83.30
2019-04-03T20:31:21.220Z,83.60
2019-04-03T20:33:49.490Z,83.80
2019-04-03T20:36:18.500Z,84.00
2019-04-03T20:38:47.690Z,84.30
2019-04-03T20:41:15.953Z,84.20
2019-04-03T20:43:47.160Z,84.00
2019-04-03T20:46:14.232Z,84.40
2019-04-03T20:48:42.462Z,83.80
2019-04-03T20:51:10.708Z,83.90
2019-04-03T20:53:38.975Z,83.90
2019-04-03T20:56:07.384Z,84.10
2019-04-03T20:58:35.788Z,83.80
2019-04-03T21:01:06.865Z,83.60
2019-04-03T21:03:34.082Z,84.30
2019-04-03T21:06:02.314Z,83.40
2019-04-03T21:08:31.683Z,83.40
2019-04-03T21:11:02.294Z,83.60
2019-04-03T21:13:30.181Z,83.50
2019-04-03T21:15:58.516Z,83.50
2019-04-03T21:18:26.748Z,83.60
2019-04-03T21:20:55.332Z,83.70
2019-04-03T21:23:23.713Z,83.60
2019-04-03T21:25:52.001Z,83.40
2019-04-03T21:28:20.223Z,83.30
2019-04-03T21:30:48.461Z,83.30
2019-04-03T21:33:17.431Z,83.30
2019-04-03T21:35:45.973Z,83.50
2019-04-03T21:38:14.392Z,83.30
2019-04-03T21:40:42.630Z,83.20
2019-04-03T21:43:11.523Z,83.30
2019-04-03T21:45:39.763Z,83.30
2019-04-03T21:48:08.313Z,83.30
2019-04-03T21:50:36.566Z,83.20
2019-04-03T21:53:04.786Z,83.20
2019-04-03T21:55:34.739Z,83.20
2019-04-03T21:58:03.158Z,83.10
2019-04-03T22:00:58.872Z,82.80
2019-04-03T22:03:27.127Z,82.50
2019-04-03T22:05:56.066Z,82.70
2019-04-03T22:08:24.989Z,82.50
2019-04-03T22:10:53.204Z,82.80
2019-04-03T22:13:21.494Z,82.80
2019-04-03T22:15:49.841Z,82.80
2019-04-03T22:18:18.142Z,82.80
2019-04-03T22:20:46.366Z,82.80
2019-04-03T22:23:14.640Z,82.80
2019-04-03T22:25:42.868Z,82.90
2019-04-03T22:28:13.209Z,82.80
2019-04-03T22:30:41.219Z,82.60
2019-04-03T22:33:09.512Z,82.30
2019-04-03T22:35:38.102Z,82.30
2019-04-03T22:38:06.366Z,82.50
2019-04-03T22:40:34.656Z,82.10
2019-04-03T22:43:02.886Z,82.10
2019-04-03T22:45:31.142Z,82.20
2019-04-03T22:47:59.545Z,82.20
2019-04-03T22:50:27.824Z,82.00
2019-04-03T22:52:56.060Z,82.10
2019-04-03T22:55:24.281Z,82.00
2019-04-03T22:57:53.129Z,82.00
2019-04-03T23:00:21.347Z,82.20
2019-04-03T23:02:49.780Z,82.60
2019-04-03T23:05:18.036Z,82.50
2019-04-03T23:07:46.262Z,82.10
2019-04-03T23:10:14.496Z,82.20
2019-04-03T23:12:42.721Z,82.10
2019-04-03T23:15:11.067Z,82.20
2019-04-03T23:17:45.435Z,82.20
2019-04-03T23:20:16.899Z,82.00
2019-04-03T23:22:45.147Z,81.90
2019-04-03T23:25:13.558Z,81.80
2019-04-03T23:27:41.784Z,81.50
2019-04-03T23:30:10.885Z,81.40
2019-04-03T23:32:39.446Z,81.10
2019-04-03T23:35:08.296Z,80.70
2019-04-03T23:37:36.701Z,80.80
2019-04-03T23:40:05.878Z,81.50
2019-04-03T23:42:34.144Z,83.10
2019-04-03T23:45:02.381Z,82.30
2019-04-03T23:47:31.650Z,82.60
2019-04-03T23:49:59.881Z,83.80
2019-04-03T23:52:29.966Z,83.60
2019-04-03T23:54:58.099Z,84.10
2019-04-03T23:57:26.358Z,84.40
2019-04-03T23:59:54.587Z,84.20
